sensor_id;sensor_type;location;lat;lon;timestamp;pressure;altitude;pressure_sealevel;temperature;humidity
51245;BME280;37840;47.562;18.738;2023-04-08T00:01:38;99921.44;;;2.74;100.00
51245;BME280;37840;47.562;18.738;2023-04-08T00:04:04;99914.34;;;2.76;100.00
51245;BME280;37840;47.562;18.738;2023-04-08T00:06:30;99912.50;;;2.78;100.00
51245;BME280;37840;47.562;18.738;2023-04-08T00:08:56;99909.78;;;2.81;100.00
51245;BME280;37840;47.562;18.738;2023-04-08T00:11:21;99899.66;;;2.71;100.00
51245;BME280;37840;47.562;18.738;2023-04-08T00:13:47;99899.84;;;2.66;99.86
51245;BME280;37840;47.562;18.738;2023-04-08T00:16:13;99904.22;;;2.65;99.74
51245;BME280;37840;47.562;18.738;2023-04-08T00:18:38;99905.31;;;2.60;99.59
51245;BME280;37840;47.562;18.738;2023-04-08T00:21:04;99901.16;;;2.53;100.00
51245;BME280;37840;47.562;18.738;2023-04-08T00:23:30;99909.16;;;2.50;100.00
51245;BME280;37840;47.562;18.738;2023-04-08T00:25:56;99909.41;;;2.42;100.00
51245;BME280;37840;47.562;18.738;2023-04-08T00:28:21;99902.47;;;2.41;100.00
51245;BME280;37840;47.562;18.738;2023-04-08T00:30:47;99907.72;;;2.41;100.00
51245;BME280;37840;47.562;18.738;2023-04-08T00:33:13;99908.47;;;2.44;100.00
51245;BME280;37840;47.562;18.738;2023-04-08T00:35:38;99911.78;;;2.50;100.00
51245;BME280;37840;47.562;18.738;2023-04-08T00:38:04;99914.94;;;2.59;100.00
51245;BME280;37840;47.562;18.738;2023-04-08T00:40:33;99916.28;;;2.71;100.00
51245;BME280;37840;47.562;18.738;2023-04-08T00:42:58;99915.28;;;2.74;99.69
51245;BME280;37840;47.562;18.738;2023-04-08T00:45:24;99914.88;;;2.61;100.00
51245;BME280;37840;47.562;18.738;2023-04-08T00:47:50;99925.22;;;2.65;100.00
51245;BME280;37840;47.562;18.738;2023-04-08T00:50:17;99924.19;;;2.70;100.00
51245;BME280;37840;47.562;18.738;2023-04-08T00:52:43;99921.25;;;2.79;100.00
51245;BME280;37840;47.562;18.738;2023-04-08T00:55:08;99918.09;;;2.69;100.00
51245;BME280;37840;47.562;18.738;2023-04-08T00:57:34;99919.81;;;2.70;100.00
51245;BME280;37840;47.562;18.738;2023-04-08T01:00:01;99928.25;;;2.78;100.00
51245;BME280;37840;47.562;18.738;2023-04-08T01:02:35;99920.72;;;2.69;100.00
51245;BME280;37840;47.562;18.738;2023-04-08T01:05:04;99918.38;;;2.61;100.00
51245;BME280;37840;47.562;18.738;2023-04-08T01:07:32;99915.09;;;2.55;100.00
51245;BME280;37840;47.562;18.738;2023-04-08T01:10:18;99920.47;;;2.52;100.00
51245;BME280;37840;47.562;18.738;2023-04-08T01:12:48;99920.78;;;2.42;100.00
51245;BME280;37840;47.562;18.738;2023-04-08T01:15:16;99917.37;;;2.40;100.00
51245;BME280;37840;47.562;18.738;2023-04-08T01:17:42;99919.06;;;2.41;100.00
51245;BME280;37840;47.562;18.738;2023-04-08T01:20:09;99912.59;;;2.52;100.00
51245;BME280;37840;47.562;18.738;2023-04-08T01:25:17;99919.03;;;2.43;100.00
51245;BME280;37840;47.562;18.738;2023-04-08T01:27:44;99917.87;;;2.50;100.00
51245;BME280;37840;47.562;18.738;2023-04-08T01:30:12;99922.84;;;2.59;100.00
51245;BME280;37840;47.562;18.738;2023-04-08T01:32:38;99919.50;;;2.54;100.00
51245;BME280;37840;47.562;18.738;2023-04-08T01:35:05;99920.69;;;2.45;100.00
51245;BME280;37840;47.562;18.738;2023-04-08T01:37:31;99924.16;;;2.46;100.00
51245;BME280;37840;47.562;18.738;2023-04-08T01:39:57;99920.50;;;2.50;100.00
51245;BME280;37840;47.562;18.738;2023-04-08T01:42:25;99917.00;;;2.51;100.00
51245;BME280;37840;47.562;18.738;2023-04-08T01:44:52;99916.41;;;2.68;100.00
51245;BME280;37840;47.562;18.738;2023-04-08T01:47:19;99913.41;;;2.54;100.00
51245;BME280;37840;47.562;18.738;2023-04-08T01:49:45;99915.91;;;2.57;100.00
51245;BME280;37840;47.562;18.738;2023-04-08T01:52:11;99910.22;;;2.44;100.00
51245;BME280;37840;47.562;18.738;2023-04-08T01:54:37;99915.00;;;2.33;100.00
51245;BME280;37840;47.562;18.738;2023-04-08T01:57:04;99906.09;;;2.37;100.00
51245;BME280;37840;47.562;18.738;2023-04-08T01:59:31;99907.50;;;2.47;100.00
51245;BME280;37840;47.562;18.738;2023-04-08T02:01:59;99907.59;;;2.44;100.00
51245;BME280;37840;47.562;18.738;2023-04-08T02:04:26;99904.16;;;2.42;100.00
51245;BME280;37840;47.562;18.738;2023-04-08T02:06:52;99903.56;;;2.34;100.00
51245;BME280;37840;47.562;18.738;2023-04-08T02:09:18;99903.66;;;2.32;100.00
51245;BME280;37840;47.562;18.738;2023-04-08T02:11:43;99909.00;;;2.29;100.00
51245;BME280;37840;47.562;18.738;2023-04-08T02:14:09;99900.19;;;2.32;100.00
51245;BME280;37840;47.562;18.738;2023-04-08T02:19:02;99909.87;;;2.30;100.00
51245;BME280;37840;47.562;18.738;2023-04-08T02:21:32;99915.13;;;2.30;100.00
51245;BME280;37840;47.562;18.738;2023-04-08T02:24:02;99917.81;;;2.27;100.00
51245;BME280;37840;47.562;18.738;2023-04-08T02:26:29;99912.38;;;2.33;100.00
51245;BME280;37840;47.562;18.738;2023-04-08T02:28:57;99909.00;;;2.29;100.00
51245;BME280;37840;47.562;18.738;2023-04-08T02:31:24;99916.22;;;2.22;100.00
51245;BME280;37840;47.562;18.738;2023-04-08T02:33:50;99911.72;;;2.26;100.00
51245;BME280;37840;47.562;18.738;2023-04-08T02:36:17;99912.50;;;2.30;100.00
51245;BME280;37840;47.562;18.738;2023-04-08T02:38:46;99912.75;;;2.22;100.00
51245;BME280;37840;47.562;18.738;2023-04-08T02:41:12;99913.72;;;2.19;100.00
51245;BME280;37840;47.562;18.738;2023-04-08T02:43:37;99911.13;;;2.18;100.00
51245;BME280;37840;47.562;18.738;2023-04-08T02:46:03;99906.66;;;2.21;100.00
51245;BME280;37840;47.562;18.738;2023-04-08T02:48:29;99911.81;;;2.23;100.00
51245;BME280;37840;47.562;18.738;2023-04-08T02:50:55;99917.13;;;2.21;100.00
51245;BME280;37840;47.562;18.738;2023-04-08T02:53:22;99910.00;;;2.25;100.00
51245;BME280;37840;47.562;18.738;2023-04-08T02:55:48;99913.94;;;2.38;100.00
51245;BME280;37840;47.562;18.738;2023-04-08T02:58:13;99917.59;;;2.59;100.00
51245;BME280;37840;47.562;18.738;2023-04-08T03:00:39;99916.22;;;2.73;100.00
51245;BME280;37840;47.562;18.738;2023-04-08T03:03:05;99919.47;;;2.79;100.00
51245;BME280;37840;47.562;18.738;2023-04-08T03:05:31;99918.50;;;2.82;100.00
51245;BME280;37840;47.562;18.738;2023-04-08T03:07:57;99924.37;;;2.89;100.00
51245;BME280;37840;47.562;18.738;2023-04-08T03:10:23;99916.63;;;2.85;100.00
51245;BME280;37840;47.562;18.738;2023-04-08T03:12:49;99917.37;;;2.89;100.00
51245;BME280;37840;47.562;18.738;2023-04-08T03:15:15;99919.66;;;2.98;100.00
51245;BME280;37840;47.562;18.738;2023-04-08T03:17:41;99921.12;;;3.05;100.00
51245;BME280;37840;47.562;18.738;2023-04-08T03:20:06;99914.22;;;3.03;100.00
51245;BME280;37840;47.562;18.738;2023-04-08T03:22:32;99914.63;;;3.16;100.00
51245;BME280;37840;47.562;18.738;2023-04-08T03:24:58;99921.12;;;3.29;100.00
51245;BME280;37840;47.562;18.738;2023-04-08T03:27:24;99918.16;;;3.38;100.00
51245;BME280;37840;47.562;18.738;2023-04-08T03:29:50;99924.44;;;3.34;99.21
51245;BME280;37840;47.562;18.738;2023-04-08T03:32:15;99926.22;;;3.34;98.34
51245;BME280;37840;47.562;18.738;2023-04-08T03:34:41;99927.06;;;3.34;97.74
51245;BME280;37840;47.562;18.738;2023-04-08T03:37:07;99927.88;;;3.36;97.20
51245;BME280;37840;47.562;18.738;2023-04-08T03:39:32;99928.06;;;3.32;97.09
51245;BME280;37840;47.562;18.738;2023-04-08T03:41:58;99924.44;;;3.34;96.74
51245;BME280;37840;47.562;18.738;2023-04-08T03:44:25;99927.69;;;3.41;96.47
51245;BME280;37840;47.562;18.738;2023-04-08T03:46:51;99927.75;;;3.39;96.20
51245;BME280;37840;47.562;18.738;2023-04-08T03:49:17;99926.94;;;3.37;95.81
51245;BME280;37840;47.562;18.738;2023-04-08T03:51:42;99924.37;;;3.36;95.74
51245;BME280;37840;47.562;18.738;2023-04-08T03:54:08;99926.94;;;3.37;95.46
51245;BME280;37840;47.562;18.738;2023-04-08T03:56:34;99931.22;;;3.40;95.50
51245;BME280;37840;47.562;18.738;2023-04-08T03:58:59;99936.59;;;3.37;95.18
51245;BME280;37840;47.562;18.738;2023-04-08T04:01:25;99942.84;;;3.34;95.38
51245;BME280;37840;47.562;18.738;2023-04-08T04:03:51;99942.09;;;3.31;95.44
51245;BME280;37840;47.562;18.738;2023-04-08T04:06:16;99939.41;;;3.32;95.43
51245;BME280;37840;47.562;18.738;2023-04-08T04:08:42;99942.75;;;3.36;95.40
51245;BME280;37840;47.562;18.738;2023-04-08T04:11:08;99954.81;;;3.41;95.06
51245;BME280;37840;47.562;18.738;2023-04-08T04:13:34;99943.50;;;3.39;94.86
51245;BME280;37840;47.562;18.738;2023-04-08T04:15:59;99953.34;;;3.34;94.82
51245;BME280;37840;47.562;18.738;2023-04-08T04:18:25;99950.66;;;3.36;95.03
51245;BME280;37840;47.562;18.738;2023-04-08T04:20:51;99956.66;;;3.39;94.48
51245;BME280;37840;47.562;18.738;2023-04-08T04:23:16;99958.25;;;3.43;94.14
51245;BME280;37840;47.562;18.738;2023-04-08T04:25:42;99965.78;;;3.53;93.75
51245;BME280;37840;47.562;18.738;2023-04-08T04:28:08;99958.81;;;3.52;93.55
51245;BME280;37840;47.562;18.738;2023-04-08T04:30:37;99964.31;;;3.45;93.86
51245;BME280;37840;47.562;18.738;2023-04-08T04:33:04;99960.94;;;3.42;94.34
51245;BME280;37840;47.562;18.738;2023-04-08T04:35:30;99965.47;;;3.38;94.51
51245;BME280;37840;47.562;18.738;2023-04-08T04:37:55;99963.66;;;3.40;94.40
51245;BME280;37840;47.562;18.738;2023-04-08T04:40:21;99957.50;;;3.40;94.47
51245;BME280;37840;47.562;18.738;2023-04-08T04:42:47;99967.00;;;3.44;94.12
51245;BME280;37840;47.562;18.738;2023-04-08T04:45:13;99962.34;;;3.51;94.27
51245;BME280;37840;47.562;18.738;2023-04-08T04:47:38;99967.56;;;3.52;94.18
51245;BME280;37840;47.562;18.738;2023-04-08T04:50:05;99956.81;;;3.58;93.68
51245;BME280;37840;47.562;18.738;2023-04-08T04:52:31;99962.06;;;3.58;93.52
51245;BME280;37840;47.562;18.738;2023-04-08T04:54:57;99958.03;;;3.50;93.56
51245;BME280;37840;47.562;18.738;2023-04-08T04:57:23;99963.94;;;3.55;93.61
51245;BME280;37840;47.562;18.738;2023-04-08T04:59:48;99965.44;;;3.62;93.32
51245;BME280;37840;47.562;18.738;2023-04-08T05:02:14;99963.03;;;3.56;94.19
51245;BME280;37840;47.562;18.738;2023-04-08T05:04:40;99965.44;;;3.62;93.84
51245;BME280;37840;47.562;18.738;2023-04-08T05:07:05;99967.88;;;3.66;93.41
51245;BME280;37840;47.562;18.738;2023-04-08T05:09:31;99973.38;;;3.60;93.15
51245;BME280;37840;47.562;18.738;2023-04-08T05:11:57;99971.69;;;3.59;93.07
51245;BME280;37840;47.562;18.738;2023-04-08T05:14:22;99977.00;;;3.58;93.01
51245;BME280;37840;47.562;18.738;2023-04-08T05:16:48;99974.53;;;3.53;93.10
51245;BME280;37840;47.562;18.738;2023-04-08T05:19:14;99978.69;;;3.59;92.95
51245;BME280;37840;47.562;18.738;2023-04-08T05:21:39;99980.28;;;3.63;93.01
51245;BME280;37840;47.562;18.738;2023-04-08T05:24:05;99979.38;;;3.64;92.88
51245;BME280;37840;47.562;18.738;2023-04-08T05:26:31;99981.28;;;3.60;93.19
51245;BME280;37840;47.562;18.738;2023-04-08T05:28:57;99991.97;;;3.56;92.89
51245;BME280;37840;47.562;18.738;2023-04-08T05:31:23;99990.19;;;3.56;92.49
51245;BME280;37840;47.562;18.738;2023-04-08T05:33:48;99990.88;;;3.61;92.42
51245;BME280;37840;47.562;18.738;2023-04-08T05:36:14;99996.88;;;3.65;92.62
51245;BME280;37840;47.562;18.738;2023-04-08T05:38:40;99999.44;;;3.66;93.14
51245;BME280;37840;47.562;18.738;2023-04-08T05:41:08;99999.09;;;3.76;92.86
51245;BME280;37840;47.562;18.738;2023-04-08T05:43:34;100003.44;;;3.77;93.21
51245;BME280;37840;47.562;18.738;2023-04-08T05:46:09;99998.84;;;3.82;92.77
51245;BME280;37840;47.562;18.738;2023-04-08T05:48:35;100003.06;;;3.86;92.57
51245;BME280;37840;47.562;18.738;2023-04-08T05:51:01;100010.97;;;3.86;92.05
51245;BME280;37840;47.562;18.738;2023-04-08T05:53:27;100008.28;;;3.87;91.77
51245;BME280;37840;47.562;18.738;2023-04-08T05:55:52;100006.25;;;3.72;91.93
51245;BME280;37840;47.562;18.738;2023-04-08T05:58:18;100006.59;;;3.63;93.07
51245;BME280;37840;47.562;18.738;2023-04-08T06:00:44;100005.22;;;3.76;92.75
51245;BME280;37840;47.562;18.738;2023-04-08T06:03:09;100003.44;;;3.77;92.45
51245;BME280;37840;47.562;18.738;2023-04-08T06:05:35;99997.25;;;3.78;92.49
51245;BME280;37840;47.562;18.738;2023-04-08T06:08:01;100011.28;;;3.78;92.65
51245;BME280;37840;47.562;18.738;2023-04-08T06:10:26;100007.34;;;3.88;93.01
51245;BME280;37840;47.562;18.738;2023-04-08T06:12:52;100011.72;;;3.90;93.04
51245;BME280;37840;47.562;18.738;2023-04-08T06:15:18;100011.81;;;3.86;92.68
51245;BME280;37840;47.562;18.738;2023-04-08T06:17:43;100012.22;;;3.76;92.85
51245;BME280;37840;47.562;18.738;2023-04-08T06:20:09;100022.03;;;3.72;92.93
51245;BME280;37840;47.562;18.738;2023-04-08T06:22:35;100022.34;;;3.86;92.59
51245;BME280;37840;47.562;18.738;2023-04-08T06:25:01;100020.41;;;3.92;92.41
51245;BME280;37840;47.562;18.738;2023-04-08T06:27:27;100022.84;;;3.96;92.37
51245;BME280;37840;47.562;18.738;2023-04-08T06:29:52;100031.91;;;3.89;92.46
51245;BME280;37840;47.562;18.738;2023-04-08T06:32:20;100032.06;;;3.84;92.51
51245;BME280;37840;47.562;18.738;2023-04-08T06:34:46;100032.25;;;3.80;92.50
51245;BME280;37840;47.562;18.738;2023-04-08T06:37:14;100032.63;;;3.93;92.19
51245;BME280;37840;47.562;18.738;2023-04-08T06:39:40;100032.63;;;3.93;92.13
51245;BME280;37840;47.562;18.738;2023-04-08T06:42:06;100030.00;;;3.93;92.03
51245;BME280;37840;47.562;18.738;2023-04-08T06:44:31;100037.69;;;3.52;94.60
51245;BME280;37840;47.562;18.738;2023-04-08T06:46:57;100029.63;;;3.33;95.90
51245;BME280;37840;47.562;18.738;2023-04-08T06:49:23;100030.03;;;3.45;96.10
51245;BME280;37840;47.562;18.738;2023-04-08T06:51:48;100038.06;;;3.42;95.51
51245;BME280;37840;47.562;18.738;2023-04-08T06:54:14;100035.88;;;3.54;95.42
51245;BME280;37840;47.562;18.738;2023-04-08T06:56:40;100038.28;;;3.60;95.43
51245;BME280;37840;47.562;18.738;2023-04-08T06:59:06;100046.84;;;3.65;95.14
51245;BME280;37840;47.562;18.738;2023-04-08T07:01:32;100049.06;;;3.76;94.59
51245;BME280;37840;47.562;18.738;2023-04-08T07:03:57;100050.00;;;3.75;94.39
51245;BME280;37840;47.562;18.738;2023-04-08T07:06:23;100049.19;;;3.73;94.49
51245;BME280;37840;47.562;18.738;2023-04-08T07:08:49;100045.75;;;3.71;94.03
51245;BME280;37840;47.562;18.738;2023-04-08T07:11:17;100048.62;;;3.64;94.61
51245;BME280;37840;47.562;18.738;2023-04-08T07:13:42;100056.44;;;3.66;94.75
51245;BME280;37840;47.562;18.738;2023-04-08T07:16:08;100057.44;;;3.63;94.97
51245;BME280;37840;47.562;18.738;2023-04-08T07:18:34;100048.62;;;3.64;94.92
51245;BME280;37840;47.562;18.738;2023-04-08T07:20:59;100060.44;;;3.53;95.55
51245;BME280;37840;47.562;18.738;2023-04-08T07:23:26;100062.00;;;3.58;95.53
51245;BME280;37840;47.562;18.738;2023-04-08T07:25:52;100066.22;;;3.62;95.37
51245;BME280;37840;47.562;18.738;2023-04-08T07:28:18;100070.19;;;3.74;95.35
51245;BME280;37840;47.562;18.738;2023-04-08T07:30:44;100074.16;;;3.84;94.76
51245;BME280;37840;47.562;18.738;2023-04-08T07:33:10;100073.28;;;3.84;94.90
51245;BME280;37840;47.562;18.738;2023-04-08T07:35:36;100071.19;;;3.94;94.63
51245;BME280;37840;47.562;18.738;2023-04-08T07:38:02;100077.06;;;4.00;93.82
51245;BME280;37840;47.562;18.738;2023-04-08T07:40:28;100078.72;;;4.03;93.18
51245;BME280;37840;47.562;18.738;2023-04-08T07:42:54;100082.75;;;3.90;94.29
51245;BME280;37840;47.562;18.738;2023-04-08T07:45:20;100083.38;;;3.73;95.51
51245;BME280;37840;47.562;18.738;2023-04-08T07:47:46;100083.81;;;3.60;97.23
51245;BME280;37840;47.562;18.738;2023-04-08T07:50:12;100084.69;;;3.61;96.78
51245;BME280;37840;47.562;18.738;2023-04-08T07:52:37;100094.53;;;3.56;96.60
51245;BME280;37840;47.562;18.738;2023-04-08T07:55:03;100104.28;;;3.52;97.79
51245;BME280;37840;47.562;18.738;2023-04-08T07:57:30;100100.94;;;3.49;97.31
51245;BME280;37840;47.562;18.738;2023-04-08T07:59:56;100106.97;;;3.51;97.08
51245;BME280;37840;47.562;18.738;2023-04-08T08:02:22;100113.78;;;3.56;96.88
51245;BME280;37840;47.562;18.738;2023-04-08T08:04:47;100108.69;;;3.52;96.31
51245;BME280;37840;47.562;18.738;2023-04-08T08:07:16;100112.34;;;3.47;96.41
51245;BME280;37840;47.562;18.738;2023-04-08T08:09:42;100111.72;;;3.41;97.59
51245;BME280;37840;47.562;18.738;2023-04-08T08:12:07;100109.72;;;3.47;96.94
51245;BME280;37840;47.562;18.738;2023-04-08T08:14:33;100112.75;;;3.60;96.33
51245;BME280;37840;47.562;18.738;2023-04-08T08:16:59;100107.28;;;3.66;96.09
51245;BME280;37840;47.562;18.738;2023-04-08T08:19:25;100114.87;;;3.74;95.65
51245;BME280;37840;47.562;18.738;2023-04-08T08:21:51;100106.75;;;3.80;94.89
51245;BME280;37840;47.562;18.738;2023-04-08T08:24:17;100114.25;;;3.91;94.33
51245;BME280;37840;47.562;18.738;2023-04-08T08:26:42;100115.59;;;4.01;93.77
51245;BME280;37840;47.562;18.738;2023-04-08T08:29:09;100121.78;;;4.00;94.07
51245;BME280;37840;47.562;18.738;2023-04-08T08:31:35;100121.44;;;4.09;93.42
51245;BME280;37840;47.562;18.738;2023-04-08T08:34:01;100120.59;;;4.09;93.25
51245;BME280;37840;47.562;18.738;2023-04-08T08:36:27;100129.84;;;4.19;92.95
51245;BME280;37840;47.562;18.738;2023-04-08T08:41:32;100126.56;;;4.36;92.35
51245;BME280;37840;47.562;18.738;2023-04-08T08:43:58;100124.97;;;4.32;91.59
51245;BME280;37840;47.562;18.738;2023-04-08T08:46:24;100125.00;;;4.31;91.40
51245;BME280;37840;47.562;18.738;2023-04-08T08:48:50;100128.72;;;4.25;91.49
51245;BME280;37840;47.562;18.738;2023-04-08T08:51:15;100137.44;;;4.27;91.13
51245;BME280;37840;47.562;18.738;2023-04-08T08:53:41;100127.88;;;4.24;90.73
51245;BME280;37840;47.562;18.738;2023-04-08T08:56:09;100137.78;;;4.18;90.93
51245;BME280;37840;47.562;18.738;2023-04-08T08:58:35;100132.97;;;4.29;90.40
51245;BME280;37840;47.562;18.738;2023-04-08T09:01:03;100132.97;;;4.29;89.91
51245;BME280;37840;47.562;18.738;2023-04-08T09:03:52;100143.81;;;4.21;91.27
51245;BME280;37840;47.562;18.738;2023-04-08T09:06:31;100141.78;;;4.28;90.46
51245;BME280;37840;47.562;18.738;2023-04-08T09:08:57;100152.31;;;4.28;89.92
51245;BME280;37840;47.562;18.738;2023-04-08T09:11:22;100150.84;;;3.97;91.83
51245;BME280;37840;47.562;18.738;2023-04-08T09:13:48;100157.38;;;4.11;92.10
51245;BME280;37840;47.562;18.738;2023-04-08T09:16:14;100154.63;;;3.90;93.12
51245;BME280;37840;47.562;18.738;2023-04-08T09:18:42;100165.72;;;3.75;95.23
51245;BME280;37840;47.562;18.738;2023-04-08T09:21:09;100156.84;;;3.77;94.53
51245;BME280;37840;47.562;18.738;2023-04-08T09:23:40;100163.19;;;3.72;96.36
51245;BME280;37840;47.562;18.738;2023-04-08T09:26:09;100166.19;;;3.86;95.03
51245;BME280;37840;47.562;18.738;2023-04-08T09:28:36;100158.87;;;3.94;93.92
51245;BME280;37840;47.562;18.738;2023-04-08T09:31:21;100170.94;;;4.00;93.45
51245;BME280;37840;47.562;18.738;2023-04-08T09:33:48;100176.59;;;4.13;92.14
51245;BME280;37840;47.562;18.738;2023-04-08T09:36:14;100173.78;;;4.17;91.10
51245;BME280;37840;47.562;18.738;2023-04-08T09:38:40;100169.37;;;4.18;90.76
51245;BME280;37840;47.562;18.738;2023-04-08T09:41:06;100173.66;;;4.20;90.70
51245;BME280;37840;47.562;18.738;2023-04-08T09:43:40;100169.09;;;4.25;90.68
51245;BME280;37840;47.562;18.738;2023-04-08T09:46:07;100172.16;;;4.37;90.37
51245;BME280;37840;47.562;18.738;2023-04-08T09:48:39;100174.62;;;4.41;90.08
51245;BME280;37840;47.562;18.738;2023-04-08T09:51:07;100171.75;;;4.47;90.62
51245;BME280;37840;47.562;18.738;2023-04-08T09:53:37;100170.47;;;4.58;90.42
51245;BME280;37840;47.562;18.738;2023-04-08T09:56:06;100176.16;;;4.69;90.08
51245;BME280;37840;47.562;18.738;2023-04-08T09:58:38;100176.63;;;4.80;90.12
51245;BME280;37840;47.562;18.738;2023-04-08T10:01:07;100167.16;;;4.75;89.15
51245;BME280;37840;47.562;18.738;2023-04-08T10:03:48;100173.91;;;4.82;88.47
51245;BME280;37840;47.562;18.738;2023-04-08T10:06:16;100174.62;;;4.85;88.51
51245;BME280;37840;47.562;18.738;2023-04-08T10:08:43;100170.34;;;4.83;88.83
51245;BME280;37840;47.562;18.738;2023-04-08T10:11:09;100167.91;;;4.78;88.97
51245;BME280;37840;47.562;18.738;2023-04-08T10:13:35;100179.25;;;4.80;89.42
51245;BME280;37840;47.562;18.738;2023-04-08T10:18:46;100175.13;;;4.73;90.17
51245;BME280;37840;47.562;18.738;2023-04-08T10:23:58;100183.16;;;4.70;90.04
51245;BME280;37840;47.562;18.738;2023-04-08T10:26:32;100174.09;;;4.77;89.76
51245;BME280;37840;47.562;18.738;2023-04-08T10:31:48;100177.09;;;4.90;87.36
51245;BME280;37840;47.562;18.738;2023-04-08T10:36:42;100182.59;;;5.06;88.24
51245;BME280;37840;47.562;18.738;2023-04-08T10:39:07;100172.50;;;5.16;87.77
51245;BME280;37840;47.562;18.738;2023-04-08T10:41:33;100176.63;;;5.23;88.15
51245;BME280;37840;47.562;18.738;2023-04-08T10:44:02;100172.25;;;5.22;86.70
51245;BME280;37840;47.562;18.738;2023-04-08T10:46:27;100179.91;;;5.28;86.13
51245;BME280;37840;47.562;18.738;2023-04-08T10:48:59;100178.28;;;5.25;88.74
51245;BME280;37840;47.562;18.738;2023-04-08T10:51:31;100183.91;;;4.96;88.95
51245;BME280;37840;47.562;18.738;2023-04-08T10:54:04;100181.84;;;5.02;88.97
51245;BME280;37840;47.562;18.738;2023-04-08T10:56:30;100181.00;;;5.22;88.22
51245;BME280;37840;47.562;18.738;2023-04-08T10:58:55;100181.22;;;5.18;88.08
51245;BME280;37840;47.562;18.738;2023-04-08T11:01:21;100183.84;;;5.18;87.67
51245;BME280;37840;47.562;18.738;2023-04-08T11:03:47;100185.69;;;5.16;87.58
51245;BME280;37840;47.562;18.738;2023-04-08T11:06:13;100181.22;;;5.18;88.36
51245;BME280;37840;47.562;18.738;2023-04-08T11:08:39;100182.94;;;5.19;87.46
51245;BME280;37840;47.562;18.738;2023-04-08T11:11:06;100182.31;;;5.12;89.33
51245;BME280;37840;47.562;18.738;2023-04-08T11:13:39;100184.03;;;5.13;87.74
51245;BME280;37840;47.562;18.738;2023-04-08T11:16:06;100190.78;;;5.20;87.77
51245;BME280;37840;47.562;18.738;2023-04-08T11:18:33;100188.22;;;5.19;88.10
51245;BME280;37840;47.562;18.738;2023-04-08T11:20:59;100192.16;;;5.29;87.12
51245;BME280;37840;47.562;18.738;2023-04-08T11:23:26;100186.88;;;5.29;85.95
51245;BME280;37840;47.562;18.738;2023-04-08T11:25:52;100192.84;;;5.34;85.28
51245;BME280;37840;47.562;18.738;2023-04-08T11:28:18;100186.97;;;5.27;85.71
51245;BME280;37840;47.562;18.738;2023-04-08T11:30:44;100188.63;;;5.30;85.98
51245;BME280;37840;47.562;18.738;2023-04-08T11:33:11;100189.81;;;5.43;84.59
51245;BME280;37840;47.562;18.738;2023-04-08T11:35:40;100190.59;;;5.25;85.37
51245;BME280;37840;47.562;18.738;2023-04-08T11:38:10;100199.00;;;5.13;85.35
51245;BME280;37840;47.562;18.738;2023-04-08T11:40:36;100193.66;;;5.14;87.13
51245;BME280;37840;47.562;18.738;2023-04-08T11:43:08;100187.16;;;5.23;86.00
51245;BME280;37840;47.562;18.738;2023-04-08T11:45:38;100198.12;;;5.34;85.27
51245;BME280;37840;47.562;18.738;2023-04-08T11:48:10;100198.66;;;5.42;84.25
51245;BME280;37840;47.562;18.738;2023-04-08T11:50:36;100192.84;;;5.34;84.50
51245;BME280;37840;47.562;18.738;2023-04-08T11:53:02;100196.84;;;5.22;86.25
51245;BME280;37840;47.562;18.738;2023-04-08T11:55:29;100193.28;;;5.23;85.28
51245;BME280;37840;47.562;18.738;2023-04-08T11:57:56;100191.50;;;5.24;86.67
51245;BME280;37840;47.562;18.738;2023-04-08T12:00:22;100195.44;;;5.36;86.51
51245;BME280;37840;47.562;18.738;2023-04-08T12:02:48;100192.78;;;5.36;86.49
51245;BME280;37840;47.562;18.738;2023-04-08T12:05:15;100193.63;;;5.36;86.97
51245;BME280;37840;47.562;18.738;2023-04-08T12:07:42;100191.19;;;5.31;86.01
51245;BME280;37840;47.562;18.738;2023-04-08T12:10:10;100193.25;;;5.25;85.43
51245;BME280;37840;47.562;18.738;2023-04-08T12:12:36;100188.66;;;5.28;85.49
51245;BME280;37840;47.562;18.738;2023-04-08T12:15:02;100188.22;;;5.19;85.42
51245;BME280;37840;47.562;18.738;2023-04-08T12:17:28;100188.63;;;5.30;84.78
51245;BME280;37840;47.562;18.738;2023-04-08T12:19:54;100192.91;;;5.32;84.01
51245;BME280;37840;47.562;18.738;2023-04-08T12:22:20;100189.66;;;5.26;84.99
51245;BME280;37840;47.562;18.738;2023-04-08T12:24:46;100188.63;;;5.30;84.83
51245;BME280;37840;47.562;18.738;2023-04-08T12:27:11;100186.53;;;5.38;84.35
51245;BME280;37840;47.562;18.738;2023-04-08T12:29:37;100193.22;;;5.45;83.74
51245;BME280;37840;47.562;18.738;2023-04-08T12:32:03;100188.69;;;5.49;83.69
51245;BME280;37840;47.562;18.738;2023-04-08T12:34:30;100186.00;;;5.50;83.56
51245;BME280;37840;47.562;18.738;2023-04-08T12:36:56;100184.28;;;5.49;83.74
51245;BME280;37840;47.562;18.738;2023-04-08T12:39:21;100186.31;;;5.63;83.35
51245;BME280;37840;47.562;18.738;2023-04-08T12:41:47;100186.66;;;5.76;83.07
51245;BME280;37840;47.562;18.738;2023-04-08T12:44:13;100192.19;;;5.70;81.68
51245;BME280;37840;47.562;18.738;2023-04-08T12:46:38;100183.75;;;5.82;81.36
51245;BME280;37840;47.562;18.738;2023-04-08T12:49:04;100179.16;;;5.86;81.57
51245;BME280;37840;47.562;18.738;2023-04-08T12:51:30;100186.37;;;5.82;82.32
51245;BME280;37840;47.562;18.738;2023-04-08T12:53:56;100173.94;;;5.65;82.98
51245;BME280;37840;47.562;18.738;2023-04-08T12:56:22;100191.12;;;5.54;84.27
51245;BME280;37840;47.562;18.738;2023-04-08T12:58:48;100185.31;;;5.25;85.29
51245;BME280;37840;47.562;18.738;2023-04-08T13:01:13;100187.97;;;5.25;86.82
51245;BME280;37840;47.562;18.738;2023-04-08T13:03:39;100184.78;;;5.37;86.14
51245;BME280;37840;47.562;18.738;2023-04-08T13:06:06;100184.00;;;5.56;82.75
51245;BME280;37840;47.562;18.738;2023-04-08T13:08:32;100180.41;;;5.77;82.48